Time;durP1;ratioP1;P1;durP2;ratioP2;P2;SDS_P1;SDS_P2;PMS_P1;PMS_P2;Temp;Humidity;BMP_temperature;BMP_pressure;BME280_temperature;BME280_humidity;BME280_pressure;Samples;Min_cycle;Max_cycle;Signal;HPM_P1;HPM_P2
2023/07/07 00:01:27;;;;;;;12.60;7.60;;;;;;;;;;5045729;28;20562;-77
2023/07/07 00:03:54;;;;;;;10.10;6.57;;;;;;;;;;5027601;28;20838;-77
2023/07/07 00:06:21;;;;;;;11.20;6.83;;;;;;;;;;5044179;28;20215;-77
2023/07/07 00:08:48;;;;;;;11.97;7.10;;;;;;;;;;5029210;28;20195;-77
2023/07/07 00:11:15;;;;;;;13.57;7.37;;;;;;;;;;5060408;28;20198;-77
2023/07/07 00:13:42;;;;;;;9.97;7.07;;;;;;;;;;5047027;28;20199;-77
2023/07/07 00:16:09;;;;;;;11.60;7.23;;;;;;;;;;5045252;28;20680;-77
2023/07/07 00:18:35;;;;;;;12.27;6.87;;;;;;;;;;5025975;28;20187;-77
2023/07/07 00:21:03;;;;;;;9.90;6.87;;;;;;;;;;5028513;28;20254;-77
2023/07/07 00:23:48;;;;;;;12.03;7.07;;;;;;;;;;5028831;28;20207;-77
2023/07/07 00:26:14;;;;;;;8.23;6.70;;;;;;;;;;5029058;28;20202;-77
2023/07/07 00:29:00;;;;;;;11.17;7.77;;;;;;;;;;5028429;28;20219;-77
2023/07/07 00:31:27;;;;;;;10.97;6.47;;;;;;;;;;5028715;28;20191;-76
2023/07/07 00:33:54;;;;;;;12.03;6.67;;;;;;;;;;5028758;28;20223;-77
2023/07/07 00:36:21;;;;;;;10.77;6.87;;;;;;;;;;5010898;28;20910;-77
2023/07/07 00:38:50;;;;;;;10.53;7.37;;;;;;;;;;5027980;28;20206;-75
2023/07/07 00:41:17;;;;;;;9.77;6.57;;;;;;;;;;4994732;28;20210;-77
2023/07/07 00:44:02;;;;;;;9.80;6.60;;;;;;;;;;5010708;28;20195;-77
2023/07/07 00:46:29;;;;;;;12.10;6.57;;;;;;;;;;5028334;28;20187;-77
2023/07/07 00:48:56;;;;;;;12.93;6.67;;;;;;;;;;5028894;28;20176;-77
2023/07/07 00:51:28;;;;;;;11.80;6.90;;;;;;;;;;5026420;28;20677;-77
2023/07/07 01:26:44;;;;;;;10.77;6.33;;;;;;;;;;5047548;28;20205;-77
2023/07/07 01:29:14;;;;;;;13.73;7.00;;;;;;;;;;5040745;28;20199;-77
2023/07/07 01:31:42;;;;;;;10.20;6.93;;;;;;;;;;5010216;28;20198;-77
2023/07/07 01:34:09;;;;;;;10.17;6.37;;;;;;;;;;5030791;28;20223;-77
2023/07/07 01:36:36;;;;;;;10.33;7.20;;;;;;;;;;5042735;28;20263;-77
2023/07/07 01:39:03;;;;;;;10.90;7.07;;;;;;;;;;5009502;28;20234;-73
2023/07/07 01:41:32;;;;;;;11.50;6.57;;;;;;;;;;5042834;28;20260;-76
2023/07/07 01:44:18;;;;;;;9.57;7.03;;;;;;;;;;5027230;28;20213;-77
2023/07/07 01:46:48;;;;;;;12.13;6.93;;;;;;;;;;5030009;28;20240;-76
2023/07/07 01:49:18;;;;;;;10.37;7.13;;;;;;;;;;5047504;28;20270;-77
2023/07/07 01:51:48;;;;;;;11.13;7.57;;;;;;;;;;5011773;28;20651;-77
2023/07/07 01:54:15;;;;;;;9.67;7.00;;;;;;;;;;5027743;28;20199;-78
2023/07/07 01:56:41;;;;;;;12.30;7.20;;;;;;;;;;5026536;28;20195;-77
2023/07/07 01:59:09;;;;;;;8.63;6.00;;;;;;;;;;4993756;28;20257;-77
2023/07/07 02:01:35;;;;;;;9.33;5.77;;;;;;;;;;5010032;28;20674;-77
2023/07/07 02:04:02;;;;;;;10.73;5.80;;;;;;;;;;5027573;28;20550;-78
2023/07/07 02:06:29;;;;;;;8.43;5.80;;;;;;;;;;5012147;28;20183;-79
2023/07/07 02:09:13;;;;;;;10.07;6.30;;;;;;;;;;5042982;28;20210;-78
2023/07/07 02:11:40;;;;;;;8.87;6.20;;;;;;;;;;5058784;28;20191;-78
2023/07/07 02:14:24;;;;;;;7.33;5.17;;;;;;;;;;5043711;28;20268;-77
2023/07/07 02:16:50;;;;;;;9.30;5.47;;;;;;;;;;5032259;28;20261;-78
2023/07/07 02:19:35;;;;;;;6.67;5.27;;;;;;;;;;5033720;28;20283;-78
2023/07/07 02:22:02;;;;;;;9.67;4.83;;;;;;;;;;5031628;28;20330;-78
2023/07/07 02:24:28;;;;;;;7.53;4.80;;;;;;;;;;5045178;28;20653;-78
2023/07/07 02:26:55;;;;;;;7.33;4.90;;;;;;;;;;5033764;28;20190;-78
2023/07/07 02:29:22;;;;;;;10.17;5.20;;;;;;;;;;5050711;28;20191;-78
2023/07/07 02:31:49;;;;;;;10.43;5.77;;;;;;;;;;5051455;28;20740;-78
2023/07/07 02:34:17;;;;;;;7.67;5.27;;;;;;;;;;5050391;28;20762;-77
2023/07/07 02:36:43;;;;;;;9.47;5.67;;;;;;;;;;5051209;28;20278;-78
2023/07/07 02:39:28;;;;;;;14.87;5.50;;;;;;;;;;5036487;28;20190;-78
2023/07/07 02:41:55;;;;;;;7.37;4.77;;;;;;;;;;5028679;28;20714;-78
2023/07/07 02:44:22;;;;;;;8.73;4.70;;;;;;;;;;5013959;28;20199;-77
2023/07/07 02:46:49;;;;;;;5.93;5.03;;;;;;;;;;5013404;28;20223;-78
2023/07/07 02:49:17;;;;;;;7.70;4.70;;;;;;;;;;5029349;28;20286;-78
2023/07/07 02:51:44;;;;;;;7.97;5.60;;;;;;;;;;5031338;28;20275;-78
2023/07/07 02:54:11;;;;;;;9.10;5.37;;;;;;;;;;5013304;28;20234;-78
2023/07/07 02:56:38;;;;;;;7.27;5.67;;;;;;;;;;5046171;28;20294;-78
2023/07/07 02:59:05;;;;;;;6.23;5.53;;;;;;;;;;5013322;28;20227;-78
2023/07/07 03:01:33;;;;;;;6.90;5.37;;;;;;;;;;5029304;28;20191;-78
2023/07/07 03:04:00;;;;;;;9.63;5.50;;;;;;;;;;5013196;28;20290;-78
2023/07/07 03:06:27;;;;;;;9.53;6.17;;;;;;;;;;5030602;28;20179;-78
2023/07/07 03:08:54;;;;;;;7.13;5.30;;;;;;;;;;4997268;28;20204;-78
2023/07/07 03:11:22;;;;;;;6.90;5.30;;;;;;;;;;5022119;28;20206;-78
2023/07/07 03:13:52;;;;;;;10.33;5.60;;;;;;;;;;5013602;28;20733;-78
2023/07/07 03:16:23;;;;;;;9.37;5.13;;;;;;;;;;4997369;28;20203;-79
2023/07/07 03:19:04;;;;;;;9.97;5.67;;;;;;;;;;5044730;28;20325;-78
2023/07/07 03:21:33;;;;;;;7.07;5.50;;;;;;;;;;5032551;28;20253;-78
2023/07/07 03:24:27;;;;;;;10.77;6.23;;;;;;;;;;5031939;28;20659;-77
2023/07/07 03:26:55;;;;;;;11.07;6.30;;;;;;;;;;5032467;28;20203;-78
2023/07/07 03:29:27;;;;;;;9.03;5.57;;;;;;;;;;5066856;28;20213;-79
2023/07/07 03:31:56;;;;;;;7.10;5.07;;;;;;;;;;5033373;28;20698;-79
2023/07/07 03:34:28;;;;;;;7.97;5.57;;;;;;;;;;5018219;28;20223;-80
2023/07/07 03:36:55;;;;;;;6.53;5.07;;;;;;;;;;5044803;28;20192;-80
2023/07/07 03:39:22;;;;;;;8.30;5.70;;;;;;;;;;5040029;28;20661;-80
2023/07/07 03:41:51;;;;;;;5.87;5.00;;;;;;;;;;5027667;28;20195;-74
2023/07/07 03:44:23;;;;;;;8.67;5.53;;;;;;;;;;5063669;28;20300;-73
2023/07/07 03:46:51;;;;;;;7.47;5.53;;;;;;;;;;5030706;28;20264;-73
2023/07/07 03:49:19;;;;;;;8.33;6.13;;;;;;;;;;5037820;28;20191;-72
2023/07/07 03:51:46;;;;;;;8.10;5.13;;;;;;;;;;5026308;28;20187;-73
2023/07/07 03:54:13;;;;;;;8.50;5.60;;;;;;;;;;5026396;28;20191;-74
2023/07/07 03:56:41;;;;;;;8.23;5.30;;;;;;;;;;5047138;28;20191;-74
2023/07/07 03:59:09;;;;;;;8.23;6.07;;;;;;;;;;5026676;28;20219;-74
2023/07/07 04:01:36;;;;;;;7.20;5.73;;;;;;;;;;5011272;28;20167;-74
2023/07/07 04:04:03;;;;;;;9.93;5.57;;;;;;;;;;5031799;28;20183;-78
2023/07/07 04:06:33;;;;;;;9.20;5.13;;;;;;;;;;5031249;28;20183;-75
2023/07/07 04:09:00;;;;;;;9.63;5.77;;;;;;;;;;5047640;28;20260;-74
2023/07/07 04:11:26;;;;;;;8.83;5.30;;;;;;;;;;5046353;28;20666;-75
2023/07/07 04:13:53;;;;;;;9.27;5.30;;;;;;;;;;5027353;28;20219;-75
2023/07/07 04:16:24;;;;;;;6.33;5.33;;;;;;;;;;5023837;28;20197;-75
2023/07/07 04:18:52;;;;;;;10.93;5.30;;;;;;;;;;5053646;28;20207;-75
2023/07/07 04:21:20;;;;;;;6.77;5.10;;;;;;;;;;5028141;28;20278;-74
2023/07/07 04:24:04;;;;;;;6.53;4.80;;;;;;;;;;5032706;28;20191;-75
2023/07/07 04:26:31;;;;;;;9.57;5.33;;;;;;;;;;5061394;28;20236;-75
2023/07/07 04:29:00;;;;;;;7.97;4.77;;;;;;;;;;5038777;28;20198;-81
2023/07/07 04:31:27;;;;;;;9.10;4.90;;;;;;;;;;5066013;28;20199;-83
2023/07/07 04:33:54;;;;;;;9.13;5.27;;;;;;;;;;5049912;28;20234;-84
2023/07/07 04:36:27;;;;;;;9.43;5.60;;;;;;;;;;5049814;28;20199;-83
2023/07/07 04:38:56;;;;;;;7.83;5.20;;;;;;;;;;5031988;28;20566;-82
2023/07/07 04:41:24;;;;;;;11.97;4.93;;;;;;;;;;5029196;28;20195;-85
2023/07/07 04:43:54;;;;;;;10.20;5.07;;;;;;;;;;5014008;28;20682;-80
2023/07/07 04:46:23;;;;;;;12.23;5.57;;;;;;;;;;5005910;28;20329;-79
2023/07/07 04:48:50;;;;;;;7.30;4.50;;;;;;;;;;5031547;28;20195;-78
2023/07/07 04:51:17;;;;;;;7.27;4.27;;;;;;;;;;5043640;28;20191;-75
2023/07/07 04:53:44;;;;;;;5.47;4.07;;;;;;;;;;5043781;28;20669;-77
2023/07/07 04:56:12;;;;;;;10.90;4.63;;;;;;;;;;5037480;28;20210;-81
2023/07/07 04:58:39;;;;;;;8.13;4.97;;;;;;;;;;5030299;28;20232;-80
2023/07/07 05:01:09;;;;;;;6.70;4.27;;;;;;;;;;5026143;28;20199;-76
2023/07/07 05:03:36;;;;;;;8.43;4.00;;;;;;;;;;5061082;28;20202;-80
2023/07/07 05:06:03;;;;;;;7.97;4.00;;;;;;;;;;5045983;28;20206;-81
2023/07/07 05:08:36;;;;;;;6.60;4.00;;;;;;;;;;5051629;28;20264;-81
2023/07/07 05:11:22;;;;;;;5.93;3.87;;;;;;;;;;5045375;28;20323;-81
2023/07/07 05:13:49;;;;;;;6.77;3.00;;;;;;;;;;5033154;28;20206;-81
2023/07/07 05:16:35;;;;;;;3.83;2.60;;;;;;;;;;5037767;28;20244;-79
2023/07/07 05:19:02;;;;;;;4.03;2.53;;;;;;;;;;5014729;28;20210;-79
2023/07/07 05:21:47;;;;;;;4.10;2.60;;;;;;;;;;5045650;28;20267;-78
2023/07/07 05:24:14;;;;;;;6.87;2.73;;;;;;;;;;5030556;28;20214;-76
2023/07/07 05:26:41;;;;;;;4.93;2.47;;;;;;;;;;5036579;28;20290;-76
2023/07/07 05:29:11;;;;;;;4.60;2.53;;;;;;;;;;5031430;28;20623;-81
2023/07/07 05:31:40;;;;;;;5.43;2.20;;;;;;;;;;5047385;28;20272;-76
2023/07/07 05:34:07;;;;;;;6.50;2.70;;;;;;;;;;5047158;28;20250;-76
2023/07/07 05:36:35;;;;;;;3.47;1.97;;;;;;;;;;5046429;28;20321;-76
2023/07/07 05:39:01;;;;;;;4.07;2.00;;;;;;;;;;5045155;28;20221;-75
2023/07/07 05:41:30;;;;;;;2.27;2.03;;;;;;;;;;5025252;28;20629;-75
2023/07/07 05:43:57;;;;;;;3.20;1.97;;;;;;;;;;5044417;28;20240;-76
2023/07/07 05:46:24;;;;;;;2.70;1.90;;;;;;;;;;5037133;28;20285;-77
2023/07/07 05:48:51;;;;;;;3.77;2.00;;;;;;;;;;5030446;28;20648;-78
2023/07/07 05:51:18;;;;;;;8.90;2.63;;;;;;;;;;5051490;28;20175;-81
2023/07/07 05:53:45;;;;;;;4.70;2.43;;;;;;;;;;5031403;28;20218;-82
2023/07/07 05:56:30;;;;;;;3.57;2.07;;;;;;;;;;5022034;28;20265;-77
2023/07/07 05:58:57;;;;;;;4.63;2.30;;;;;;;;;;5051037;28;20210;-78
2023/07/07 06:01:25;;;;;;;3.03;2.00;;;;;;;;;;5017367;28;20198;-79
2023/07/07 06:03:52;;;;;;;3.17;1.90;;;;;;;;;;5050724;28;20240;-79
2023/07/07 06:06:19;;;;;;;3.23;1.73;;;;;;;;;;5049274;28;20215;-77
2023/07/07 06:08:46;;;;;;;4.57;2.13;;;;;;;;;;5050626;28;20190;-75
2023/07/07 06:11:13;;;;;;;4.10;1.90;;;;;;;;;;5031375;28;20201;-73
2023/07/07 06:13:40;;;;;;;2.43;1.87;;;;;;;;;;5049860;28;20240;-76
2023/07/07 06:16:07;;;;;;;3.70;1.80;;;;;;;;;;5050748;28;20199;-75
2023/07/07 06:18:34;;;;;;;4.50;1.90;;;;;;;;;;5048758;28;20211;-79
2023/07/07 06:21:01;;;;;;;2.90;1.67;;;;;;;;;;5049221;28;20933;-79
2023/07/07 06:23:29;;;;;;;5.87;1.93;;;;;;;;;;5050641;28;20199;-76
2023/07/07 06:25:56;;;;;;;4.77;1.90;;;;;;;;;;5044906;28;20253;-77
2023/07/07 06:28:23;;;;;;;3.57;1.70;;;;;;;;;;5036890;28;20237;-76
2023/07/07 06:30:56;;;;;;;2.67;1.83;;;;;;;;;;5053199;28;20269;-81
2023/07/07 06:33:24;;;;;;;3.23;1.80;;;;;;;;;;5069666;28;20330;-79
2023/07/07 06:35:52;;;;;;;2.80;1.60;;;;;;;;;;5053709;28;20282;-80
2023/07/07 06:38:19;;;;;;;3.37;1.87;;;;;;;;;;5033879;28;20225;-79
2023/07/07 06:40:46;;;;;;;2.63;1.73;;;;;;;;;;5032229;28;20206;-78
2023/07/07 06:43:17;;;;;;;5.67;1.70;;;;;;;;;;5042882;28;20203;-77
2023/07/07 06:45:49;;;;;;;2.27;1.60;;;;;;;;;;5027965;28;20183;-73
2023/07/07 06:48:16;;;;;;;3.10;1.43;;;;;;;;;;5032328;28;20637;-73
2023/07/07 06:50:43;;;;;;;3.37;1.27;;;;;;;;;;5050005;28;20190;-73
2023/07/07 06:53:10;;;;;;;4.20;1.63;;;;;;;;;;5038410;28;20565;-73
2023/07/07 06:55:38;;;;;;;2.87;1.53;;;;;;;;;;5033238;28;20190;-73
2023/07/07 06:58:04;;;;;;;3.77;1.60;;;;;;;;;;5066045;28;20208;-73
2023/07/07 07:00:32;;;;;;;3.47;1.40;;;;;;;;;;5039483;28;20677;-73
2023/07/07 07:02:59;;;;;;;2.83;1.50;;;;;;;;;;5032203;28;21006;-73
2023/07/07 07:05:26;;;;;;;3.50;1.67;;;;;;;;;;5030716;28;20775;-73
2023/07/07 07:07:53;;;;;;;2.30;1.50;;;;;;;;;;5050350;28;20191;-74
2023/07/07 07:10:21;;;;;;;2.97;1.50;;;;;;;;;;5032007;28;20717;-74
2023/07/07 07:12:48;;;;;;;3.23;1.70;;;;;;;;;;5016453;28;20179;-74
2023/07/07 07:15:16;;;;;;;2.93;1.50;;;;;;;;;;5050230;28;20183;-73
2023/07/07 07:17:43;;;;;;;3.23;1.50;;;;;;;;;;5041299;28;20291;-71
2023/07/07 07:20:11;;;;;;;4.77;1.77;;;;;;;;;;5030483;28;20665;-72
2023/07/07 07:22:37;;;;;;;3.37;1.77;;;;;;;;;;5048004;28;20217;-73
2023/07/07 07:25:05;;;;;;;4.33;2.03;;;;;;;;;;5010846;28;20195;-73
2023/07/07 07:27:31;;;;;;;2.77;1.53;;;;;;;;;;5054386;28;20200;-71
2023/07/07 07:29:58;;;;;;;2.97;1.57;;;;;;;;;;5064853;28;20328;-73
2023/07/07 07:32:25;;;;;;;4.37;1.83;;;;;;;;;;5028708;28;20183;-73
2023/07/07 07:34:52;;;;;;;3.43;1.80;;;;;;;;;;5051340;28;20234;-73
2023/07/07 07:37:19;;;;;;;3.77;1.80;;;;;;;;;;5059326;28;20217;-74
2023/07/07 07:39:46;;;;;;;3.73;1.80;;;;;;;;;;5072357;28;20309;-73
2023/07/07 07:42:13;;;;;;;2.87;1.67;;;;;;;;;;5071576;28;20190;-73
2023/07/07 07:44:40;;;;;;;2.73;1.60;;;;;;;;;;5057686;28;20203;-73
2023/07/07 07:47:07;;;;;;;2.70;1.83;;;;;;;;;;5047318;28;20186;-72
2023/07/07 07:49:34;;;;;;;3.80;1.93;;;;;;;;;;5033344;28;20198;-74
2023/07/07 07:52:01;;;;;;;4.73;1.70;;;;;;;;;;5070780;28;20218;-74
2023/07/07 07:54:29;;;;;;;2.43;1.60;;;;;;;;;;5037595;28;20283;-72
2023/07/07 07:56:56;;;;;;;4.27;1.90;;;;;;;;;;5053290;28;20186;-73
2023/07/07 07:59:23;;;;;;;2.40;1.83;;;;;;;;;;5063440;28;20214;-73
2023/07/07 08:02:09;;;;;;;3.03;1.70;;;;;;;;;;5063061;28;20679;-74
2023/07/07 08:04:36;;;;;;;4.10;1.70;;;;;;;;;;5040160;28;20187;-74
2023/07/07 08:07:03;;;;;;;3.37;2.03;;;;;;;;;;5071621;28;20198;-73
2023/07/07 08:09:30;;;;;;;2.57;1.60;;;;;;;;;;5066880;28;20191;-74
2023/07/07 08:11:57;;;;;;;3.47;1.70;;;;;;;;;;5067759;28;20269;-73
2023/07/07 08:14:42;;;;;;;2.30;1.70;;;;;;;;;;5038114;28;20182;-74
2023/07/07 08:17:10;;;;;;;5.70;1.67;;;;;;;;;;5060767;28;20185;-73
2023/07/07 08:19:38;;;;;;;3.17;1.80;;;;;;;;;;5050358;28;20279;-73
2023/07/07 08:22:06;;;;;;;2.73;1.80;;;;;;;;;;5050938;28;20765;-72
2023/07/07 08:24:37;;;;;;;3.70;1.60;;;;;;;;;;5066120;28;20201;-72
2023/07/07 08:27:04;;;;;;;2.40;1.40;;;;;;;;;;5043311;28;20271;-72
2023/07/07 08:29:34;;;;;;;2.10;1.53;;;;;;;;;;5053983;28;20194;-72
2023/07/07 08:32:01;;;;;;;1.90;1.50;;;;;;;;;;5058226;28;20235;-72
2023/07/07 08:34:28;;;;;;;4.30;1.73;;;;;;;;;;5051853;28;20230;-72
2023/07/07 08:37:10;;;;;;;1.90;1.43;;;;;;;;;;5062561;28;20190;-72
2023/07/07 08:39:37;;;;;;;3.47;1.70;;;;;;;;;;5067392;28;20206;-72
2023/07/07 08:42:05;;;;;;;2.07;1.40;;;;;;;;;;5062644;28;20225;-73
2023/07/07 08:44:33;;;;;;;2.33;1.40;;;;;;;;;;5061703;28;20194;-73
2023/07/07 08:47:18;;;;;;;4.13;1.60;;;;;;;;;;5044994;28;20979;-73
2023/07/07 08:49:48;;;;;;;2.20;1.67;;;;;;;;;;5047757;28;20194;-73
2023/07/07 08:52:14;;;;;;;2.67;1.27;;;;;;;;;;5048148;28;20200;-72
2023/07/07 08:54:45;;;;;;;2.40;1.50;;;;;;;;;;5047767;28;20193;-73
2023/07/07 08:57:14;;;;;;;3.03;1.50;;;;;;;;;;5030259;28;20206;-73
2023/07/07 08:59:41;;;;;;;2.33;1.63;;;;;;;;;;5057560;28;20228;-72
2023/07/07 09:02:08;;;;;;;2.80;1.57;;;;;;;;;;5050507;28;20205;-72
2023/07/07 09:04:41;;;;;;;2.87;1.63;;;;;;;;;;5067837;28;20201;-73
2023/07/07 09:07:33;;;;;;;1.67;1.40;;;;;;;;;;5052806;28;20641;-72
2023/07/07 09:10:11;;;;;;;2.63;1.50;;;;;;;;;;5066656;28;20253;-73
2023/07/07 09:12:43;;;;;;;3.10;1.53;;;;;;;;;;5033469;28;20226;-72
2023/07/07 09:15:23;;;;;;;3.53;1.80;;;;;;;;;;5033314;28;20267;-72
2023/07/07 09:17:51;;;;;;;2.33;1.60;;;;;;;;;;5066253;28;20197;-72
2023/07/07 09:20:19;;;;;;;2.40;1.50;;;;;;;;;;5050006;28;20233;-71
2023/07/07 09:22:47;;;;;;;2.77;1.50;;;;;;;;;;5049945;28;20214;-71
2023/07/07 09:25:17;;;;;;;2.97;1.70;;;;;;;;;;5049193;28;20195;-71
2023/07/07 09:27:45;;;;;;;2.97;1.60;;;;;;;;;;5067404;28;20190;-71
2023/07/07 09:30:12;;;;;;;1.90;1.60;;;;;;;;;;5066285;28;20186;-71
2023/07/07 09:32:39;;;;;;;3.03;1.50;;;;;;;;;;5065964;28;20198;-71
2023/07/07 09:35:10;;;;;;;3.17;1.33;;;;;;;;;;5067181;28;20259;-72
2023/07/07 09:37:56;;;;;;;1.97;1.43;;;;;;;;;;5067555;28;20672;-72
2023/07/07 09:40:28;;;;;;;2.47;1.60;;;;;;;;;;5049222;28;20231;-72
2023/07/07 09:42:58;;;;;;;4.20;1.93;;;;;;;;;;5067864;28;20300;-72
2023/07/07 09:45:31;;;;;;;2.30;1.50;;;;;;;;;;5049250;28;20272;-72
2023/07/07 09:48:11;;;;;;;4.83;1.80;;;;;;;;;;5061411;28;20197;-72
2023/07/07 09:50:58;;;;;;;4.00;1.50;;;;;;;;;;5049482;28;20200;-72
2023/07/07 09:53:35;;;;;;;2.37;1.70;;;;;;;;;;5066977;28;20193;-72
2023/07/07 09:56:20;;;;;;;1.53;1.40;;;;;;;;;;5051476;28;20221;-72
2023/07/07 09:58:50;;;;;;;3.00;1.37;;;;;;;;;;5049309;28;20229;-72
2023/07/07 10:01:37;;;;;;;3.30;1.60;;;;;;;;;;5067404;28;20170;-72
2023/07/07 10:04:08;;;;;;;3.03;1.50;;;;;;;;;;5067317;28;20191;-72
2023/07/07 10:06:42;;;;;;;3.03;1.40;;;;;;;;;;5032976;28;20283;-72
2023/07/07 10:09:10;;;;;;;2.13;1.40;;;;;;;;;;5045719;28;20187;-71
2023/07/07 10:11:55;;;;;;;2.43;1.57;;;;;;;;;;5051016;28;20166;-72
2023/07/07 10:14:41;;;;;;;1.80;1.40;;;;;;;;;;5052162;28;21004;-72
2023/07/07 10:17:08;;;;;;;1.63;1.50;;;;;;;;;;5049350;28;20198;-71
2023/07/07 10:19:45;;;;;;;3.23;1.40;;;;;;;;;;5048789;28;20218;-71
2023/07/07 10:22:12;;;;;;;2.33;1.40;;;;;;;;;;5049697;28;20649;-71
2023/07/07 10:24:39;;;;;;;2.10;1.50;;;;;;;;;;5048714;28;20210;-71
2023/07/07 10:27:09;;;;;;;3.13;1.40;;;;;;;;;;5047481;28;20190;-71
2023/07/07 10:29:39;;;;;;;1.80;1.30;;;;;;;;;;5065776;28;20265;-71
2023/07/07 10:32:09;;;;;;;3.80;1.20;;;;;;;;;;5049431;28;20186;-72
2023/07/07 10:34:41;;;;;;;1.67;1.20;;;;;;;;;;5049333;28;20240;-72
2023/07/07 10:37:15;;;;;;;3.57;1.70;;;;;;;;;;5067083;28;20270;-71
2023/07/07 10:40:00;;;;;;;1.77;1.27;;;;;;;;;;5055640;28;21008;-71
2023/07/07 10:42:27;;;;;;;2.00;1.23;;;;;;;;;;5070240;28;20604;-71
2023/07/07 10:44:58;;;;;;;3.10;1.60;;;;;;;;;;5067487;28;20194;-71
2023/07/07 10:47:25;;;;;;;2.23;1.30;;;;;;;;;;5070118;28;20190;-71
2023/07/07 10:49:52;;;;;;;1.50;1.40;;;;;;;;;;5042668;23;20246;-72
2023/07/07 10:52:30;;;;;;;1.50;1.40;;;;;;;;;;5010055;28;20195;-71
2023/07/07 10:55:03;;;;;;;4.60;1.53;;;;;;;;;;5009494;28;20191;-71
2023/07/07 10:57:33;;;;;;;3.83;1.70;;;;;;;;;;5009480;28;20278;-71
2023/07/07 11:00:06;;;;;;;5.20;1.40;;;;;;;;;;5010635;28;20222;-72
2023/07/07 11:03:04;;;;;;;1.63;1.40;;;;;;;;;;5009651;28;20173;-72
2023/07/07 11:05:32;;;;;;;4.07;1.30;;;;;;;;;;5009069;28;20215;-71
2023/07/07 11:08:02;;;;;;;2.93;1.40;;;;;;;;;;5025738;28;20198;-71
2023/07/07 11:10:32;;;;;;;2.40;1.20;;;;;;;;;;5010313;28;20192;-73
2023/07/07 11:13:10;;;;;;;2.83;1.20;;;;;;;;;;5008907;28;20291;-74
2023/07/07 11:15:40;;;;;;;2.73;1.23;;;;;;;;;;5009317;28;20246;-72
2023/07/07 11:18:13;;;;;;;2.13;1.40;;;;;;;;;;4992843;28;20196;-72
2023/07/07 11:20:46;;;;;;;2.87;1.30;;;;;;;;;;5009918;28;20278;-72
2023/07/07 11:23:37;;;;;;;1.67;1.43;;;;;;;;;;5010018;28;20662;-71
2023/07/07 11:26:11;;;;;;;2.47;1.30;;;;;;;;;;5008546;28;20278;-71
2023/07/07 11:28:44;;;;;;;2.03;1.27;;;;;;;;;;5008672;28;20192;-71
2023/07/07 11:31:16;;;;;;;1.47;1.20;;;;;;;;;;5010282;28;20193;-72
2023/07/07 11:34:00;;;;;;;3.07;1.43;;;;;;;;;;4995342;28;20181;-72
2023/07/07 11:36:30;;;;;;;2.70;1.30;;;;;;;;;;5006849;28;20203;-72
2023/07/07 11:39:20;;;;;;;2.17;1.30;;;;;;;;;;5008696;28;20275;-72
2023/07/07 11:41:46;;;;;;;2.27;1.30;;;;;;;;;;4990667;28;20287;-72
2023/07/07 11:44:40;;;;;;;1.20;1.10;;;;;;;;;;5008785;28;20180;-71
2023/07/07 11:47:10;;;;;;;2.47;1.40;;;;;;;;;;5008605;28;20259;-72
2023/07/07 11:49:56;;;;;;;2.67;1.20;;;;;;;;;;5009558;28;20225;-71
2023/07/07 11:52:28;;;;;;;2.30;1.20;;;;;;;;;;5008590;28;20552;-72
2023/07/07 11:54:56;;;;;;;1.67;1.20;;;;;;;;;;4992925;28;20398;-72
2023/07/07 11:57:26;;;;;;;6.27;1.40;;;;;;;;;;5009093;28;20212;-72
2023/07/07 11:59:59;;;;;;;2.60;1.40;;;;;;;;;;5007783;28;20725;-72
2023/07/07 12:02:47;;;;;;;1.17;1.00;;;;;;;;;;5008945;28;20346;-72
2023/07/07 12:05:22;;;;;;;2.30;1.30;;;;;;;;;;4992031;28;20686;-72
2023/07/07 12:08:29;;;;;;;1.77;1.20;;;;;;;;;;5008117;28;20173;-72
2023/07/07 12:10:56;;;;;;;2.40;1.00;;;;;;;;;;5002713;28;20715;-72
2023/07/07 12:13:27;;;;;;;1.20;1.10;;;;;;;;;;4972173;28;20184;-72
2023/07/07 12:15:57;;;;;;;2.27;1.17;;;;;;;;;;4988889;28;20419;-72
2023/07/07 12:18:44;;;;;;;2.07;1.17;;;;;;;;;;4989572;28;20181;-72
2023/07/07 12:21:15;;;;;;;2.23;1.40;;;;;;;;;;4988149;28;20216;-72
2023/07/07 12:23:53;;;;;;;2.50;1.27;;;;;;;;;;4987969;28;20220;-72
2023/07/07 12:26:22;;;;;;;1.67;1.10;;;;;;;;;;4988110;28;20681;-72
2023/07/07 12:28:51;;;;;;;2.67;1.10;;;;;;;;;;4987954;28;20208;-71
2023/07/07 12:31:19;;;;;;;1.30;1.00;;;;;;;;;;4988281;28;20175;-72
2023/07/07 12:33:51;;;;;;;1.80;1.20;;;;;;;;;;4971865;28;20239;-72
2023/07/07 12:36:18;;;;;;;4.03;1.23;;;;;;;;;;4998240;28;20199;-72
2023/07/07 12:38:47;;;;;;;1.20;1.10;;;;;;;;;;5007383;28;20613;-72
2023/07/07 12:41:15;;;;;;;3.00;1.37;;;;;;;;;;5007437;28;20238;-72
2023/07/07 12:43:49;;;;;;;1.77;1.13;;;;;;;;;;5007262;28;20190;-72
2023/07/07 12:46:17;;;;;;;3.27;0.93;;;;;;;;;;5007602;28;20208;-72
2023/07/07 12:49:06;;;;;;;3.13;1.30;;;;;;;;;;5007623;28;20965;-72
2023/07/07 12:51:34;;;;;;;1.50;1.37;;;;;;;;;;5008420;28;20212;-72
2023/07/07 12:54:01;;;;;;;3.80;1.43;;;;;;;;;;5005585;28;21024;-72
2023/07/07 12:56:28;;;;;;;1.97;1.53;;;;;;;;;;5007265;28;20246;-72
2023/07/07 12:58:56;;;;;;;2.33;1.40;;;;;;;;;;5007507;28;20192;-72
2023/07/07 13:01:40;;;;;;;2.97;1.33;;;;;;;;;;5006903;28;20188;-72
2023/07/07 13:04:07;;;;;;;3.93;1.40;;;;;;;;;;5007120;28;20599;-71
2023/07/07 13:06:57;;;;;;;1.90;1.30;;;;;;;;;;5008589;28;20172;-72
2023/07/07 13:09:25;;;;;;;5.97;1.80;;;;;;;;;;5006069;28;20199;-72
2023/07/07 13:12:33;;;;;;;2.83;1.30;;;;;;;;;;4987620;28;20659;-72
2023/07/07 13:15:03;;;;;;;2.60;1.10;;;;;;;;;;4987327;28;20200;-71
2023/07/07 13:17:31;;;;;;;2.40;1.33;;;;;;;;;;4987386;28;20668;-71
2023/07/07 13:19:58;;;;;;;2.83;1.43;;;;;;;;;;4995389;28;20284;-72
2023/07/07 13:22:28;;;;;;;5.43;1.93;;;;;;;;;;5006689;28;20193;-72
2023/07/07 13:25:33;;;;;;;1.90;1.40;;;;;;;;;;4995600;28;20556;-71
2023/07/07 13:28:00;;;;;;;2.00;1.53;;;;;;;;;;4997278;28;20207;-72
2023/07/07 13:30:45;;;;;;;1.63;1.30;;;;;;;;;;5001396;28;20265;-71
2023/07/07 13:33:13;;;;;;;1.37;1.10;;;;;;;;;;4997542;28;20648;-71
2023/07/07 13:35:58;;;;;;;2.27;1.43;;;;;;;;;;4977786;28;20227;-72
2023/07/07 13:38:26;;;;;;;3.13;1.40;;;;;;;;;;5006860;28;20193;-71
2023/07/07 13:40:53;;;;;;;2.77;1.60;;;;;;;;;;5001995;28;20224;-71
2023/07/07 13:43:29;;;;;;;1.93;1.47;;;;;;;;;;5011608;28;20710;-71
2023/07/07 13:45:58;;;;;;;1.77;1.20;;;;;;;;;;5007062;28;20204;-72
2023/07/07 13:48:26;;;;;;;2.50;1.57;;;;;;;;;;5007012;28;20575;-72
2023/07/07 13:50:53;;;;;;;3.03;1.53;;;;;;;;;;5004785;28;20225;-72
2023/07/07 13:53:20;;;;;;;2.70;1.47;;;;;;;;;;5005228;28;20270;-72
2023/07/07 13:55:48;;;;;;;3.10;1.30;;;;;;;;;;5001756;28;20916;-71
2023/07/07 13:58:20;;;;;;;2.30;1.60;;;;;;;;;;5001689;28;20221;-71
2023/07/07 14:01:05;;;;;;;2.27;1.33;;;;;;;;;;5013381;28;20215;-71
2023/07/07 14:03:33;;;;;;;2.40;1.43;;;;;;;;;;5002496;28;20193;-72
2023/07/07 14:06:10;;;;;;;3.17;1.33;;;;;;;;;;4996708;28;20246;-71
2023/07/07 14:08:36;;;;;;;2.40;1.23;;;;;;;;;;5003879;28;20200;-72
2023/07/07 14:11:22;;;;;;;2.30;1.40;;;;;;;;;;5006397;28;20338;-72
2023/07/07 14:13:51;;;;;;;1.90;1.20;;;;;;;;;;5005455;28;20581;-72
2023/07/07 14:16:36;;;;;;;2.27;1.30;;;;;;;;;;5021270;28;20255;-72
2023/07/07 14:19:05;;;;;;;4.13;1.33;;;;;;;;;;5010176;28;20909;-72
2023/07/07 14:21:50;;;;;;;3.63;1.40;;;;;;;;;;4995468;28;20651;-72
2023/07/07 14:24:17;;;;;;;1.30;1.00;;;;;;;;;;5005038;28;20196;-72
2023/07/07 14:26:44;;;;;;;3.47;1.50;;;;;;;;;;5010809;28;20235;-72
2023/07/07 14:29:31;;;;;;;2.87;0.90;;;;;;;;;;4994351;28;20199;-72
2023/07/07 14:31:59;;;;;;;2.37;1.27;;;;;;;;;;5005685;28;20902;-71
2023/07/07 14:34:26;;;;;;;2.93;1.30;;;;;;;;;;5008887;28;20196;-71
2023/07/07 14:36:55;;;;;;;2.27;1.00;;;;;;;;;;5007443;28;20203;-71
2023/07/07 14:39:23;;;;;;;2.17;1.00;;;;;;;;;;5005186;28;20202;-72
2023/07/07 14:41:51;;;;;;;1.50;1.00;;;;;;;;;;5019324;28;20229;-71
2023/07/07 14:44:37;;;;;;;1.30;1.20;;;;;;;;;;5004524;28;20651;-71
2023/07/07 14:47:31;;;;;;;1.70;1.20;;;;;;;;;;5007427;28;20186;-72
2023/07/07 14:50:02;;;;;;;5.83;1.20;;;;;;;;;;5006033;28;20234;-72
2023/07/07 14:52:47;;;;;;;1.90;1.10;;;;;;;;;;4992686;28;20188;-71
2023/07/07 14:55:14;;;;;;;1.77;0.80;;;;;;;;;;5009864;28;20204;-72
2023/07/07 14:57:48;;;;;;;2.10;0.80;;;;;;;;;;5004447;28;20224;-72
2023/07/07 15:00:30;;;;;;;2.27;1.00;;;;;;;;;;5014590;28;20209;-72
2023/07/07 15:02:57;;;;;;;2.53;1.00;;;;;;;;;;5009861;28;20663;-72
2023/07/07 15:05:24;;;;;;;1.60;0.97;;;;;;;;;;5008848;28;20280;-72
2023/07/07 15:07:51;;;;;;;4.57;1.23;;;;;;;;;;5009869;28;20222;-72
2023/07/07 15:10:18;;;;;;;0.93;0.83;;;;;;;;;;5008296;28;20223;-71
2023/07/07 15:12:45;;;;;;;1.43;1.00;;;;;;;;;;5007365;28;20683;-72
2023/07/07 15:15:12;;;;;;;3.87;1.10;;;;;;;;;;5004375;28;20728;-72
2023/07/07 15:17:39;;;;;;;2.03;0.83;;;;;;;;;;5006732;28;20267;-71
2023/07/07 15:20:13;;;;;;;1.90;0.90;;;;;;;;;;5004356;28;20214;-71
2023/07/07 15:22:40;;;;;;;1.77;0.90;;;;;;;;;;5003907;28;20215;-72
2023/07/07 15:25:07;;;;;;;2.40;0.93;;;;;;;;;;5005021;28;20191;-72
2023/07/07 15:27:34;;;;;;;1.83;1.00;;;;;;;;;;4993854;28;20600;-72
2023/07/07 15:30:00;;;;;;;4.23;1.23;;;;;;;;;;5000974;28;20283;-71
2023/07/07 15:32:27;;;;;;;2.57;0.90;;;;;;;;;;5001582;28;20295;-73
2023/07/07 15:34:54;;;;;;;2.00;0.90;;;;;;;;;;5005445;28;20844;-72
2023/07/07 15:37:22;;;;;;;2.40;1.10;;;;;;;;;;4996160;28;20239;-72